createdAt,value
2019-03-16T00:03:51.112Z,5.61
2019-03-16T00:08:52.668Z,5.56
2019-03-16T00:13:54.240Z,5.53
2019-03-16T00:18:55.924Z,5.46
2019-03-16T00:23:57.581Z,5.35
2019-03-16T00:28:59.472Z,5.21
2019-03-16T00:34:01.194Z,5.19
2019-03-16T00:39:06.554Z,5.25
2019-03-16T00:44:08.112Z,5.43
2019-03-16T00:49:09.666Z,5.59
2019-03-16T00:54:11.223Z,5.58
2019-03-16T00:59:12.829Z,5.51
2019-03-16T01:04:14.576Z,5.48
2019-03-16T01:09:16.126Z,5.47
2019-03-16T01:14:17.664Z,5.43
2019-03-16T01:19:19.248Z,5.41
2019-03-16T01:24:20.799Z,5.37
2019-03-16T01:29:22.380Z,5.33
2019-03-16T01:34:24.012Z,5.39
2019-03-16T01:39:25.560Z,5.49
2019-03-16T01:44:27.112Z,5.49
2019-03-16T01:49:28.662Z,5.51
2019-03-16T01:54:30.219Z,5.58
2019-03-16T01:59:31.831Z,5.59
2019-03-16T02:04:33.490Z,5.57
2019-03-16T02:09:35.195Z,5.63
2019-03-16T02:14:36.748Z,5.58
2019-03-16T02:19:38.441Z,5.57
2019-03-16T02:24:40.000Z,5.54
2019-03-16T02:29:41.593Z,5.51
2019-03-16T02:34:43.204Z,5.46
2019-03-16T02:39:44.764Z,5.43
2019-03-16T02:44:46.316Z,5.40
2019-03-16T02:49:47.877Z,5.36
2019-03-16T02:54:49.465Z,5.35
2019-03-16T02:59:51.055Z,5.30
2019-03-16T03:04:52.608Z,5.23
2019-03-16T03:09:54.164Z,5.18
2019-03-16T03:14:55.748Z,5.11
2019-03-16T03:19:57.299Z,5.04
2019-03-16T03:24:58.899Z,4.94
2019-03-16T03:30:00.519Z,4.91
2019-03-16T03:35:04.039Z,4.91
2019-03-16T03:40:09.487Z,4.85
2019-03-16T03:45:12.390Z,4.83
2019-03-16T03:50:14.760Z,4.75
2019-03-16T03:55:16.303Z,4.69
2019-03-16T04:00:18.247Z,4.69
2019-03-16T04:05:19.853Z,4.65
2019-03-16T04:10:21.500Z,4.62
2019-03-16T04:15:23.139Z,4.62
2019-03-16T04:20:24.813Z,4.63
2019-03-16T04:25:26.390Z,4.63
2019-03-16T04:30:27.903Z,4.61
2019-03-16T04:35:29.562Z,4.63
2019-03-16T04:40:31.140Z,4.61
2019-03-16T04:45:32.795Z,4.62
2019-03-16T04:50:34.383Z,4.61
2019-03-16T04:55:36.073Z,4.62
2019-03-16T05:00:37.623Z,4.62
2019-03-16T05:05:39.166Z,4.64
2019-03-16T05:10:40.758Z,4.69
2019-03-16T05:15:42.307Z,4.69
2019-03-16T05:20:44.952Z,4.71
2019-03-16T05:25:46.598Z,4.75
2019-03-16T05:30:48.351Z,4.72
2019-03-16T05:35:50.151Z,4.75
2019-03-16T05:40:51.689Z,4.75
2019-03-16T05:45:53.240Z,4.76
2019-03-16T05:50:57.351Z,4.81
2019-03-16T05:55:58.253Z,4.82
2019-03-16T06:00:59.841Z,4.85
2019-03-16T06:06:01.453Z,4.89
2019-03-16T06:11:03.294Z,4.91
2019-03-16T06:16:04.843Z,4.93
2019-03-16T06:21:06.446Z,4.95
2019-03-16T06:26:07.998Z,5.00
2019-03-16T06:31:09.555Z,4.96
2019-03-16T06:36:11.429Z,4.97
2019-03-16T06:41:13.067Z,5.01
2019-03-16T06:46:14.620Z,5.07
2019-03-16T06:51:16.731Z,5.10
2019-03-16T06:56:18.295Z,5.13
2019-03-16T07:01:19.847Z,5.18
2019-03-16T07:06:21.405Z,5.23
2019-03-16T07:11:23.168Z,5.27
2019-03-16T07:16:25.446Z,5.36
2019-03-16T07:21:27.308Z,5.39
2019-03-16T07:26:30.703Z,5.38
2019-03-16T07:31:32.925Z,5.42
2019-03-16T07:36:36.263Z,5.49
2019-03-16T07:41:38.888Z,5.56
2019-03-16T07:46:40.689Z,5.66
2019-03-16T07:51:43.593Z,5.71
2019-03-16T07:56:45.491Z,5.75
2019-03-16T08:01:47.059Z,5.93
2019-03-16T08:06:48.963Z,6.02
2019-03-16T08:11:50.666Z,5.95
2019-03-16T08:16:52.983Z,5.98
2019-03-16T08:21:54.559Z,6.26
2019-03-16T08:26:56.422Z,6.25
2019-03-16T08:31:58.181Z,6.59
2019-03-16T08:36:59.807Z,6.76
2019-03-16T08:42:01.372Z,6.73
2019-03-16T08:47:03.025Z,7.01
2019-03-16T08:52:04.596Z,7.06
2019-03-16T08:57:06.180Z,6.98
2019-03-16T09:02:07.781Z,7.07
2019-03-16T09:07:09.551Z,6.96
2019-03-16T09:12:11.346Z,6.88
2019-03-16T09:17:12.986Z,6.80
2019-03-16T09:22:15.045Z,6.78
2019-03-16T09:27:16.604Z,6.67
2019-03-16T09:32:18.156Z,6.67
2019-03-16T09:37:19.831Z,6.77
2019-03-16T09:42:21.421Z,6.77
2019-03-16T09:47:22.971Z,6.73
2019-03-16T09:52:25.353Z,6.96
2019-03-16T09:57:26.911Z,7.12
2019-03-16T10:02:28.656Z,7.14
2019-03-16T10:07:30.434Z,7.07
2019-03-16T10:12:32.010Z,7.32
2019-03-16T10:17:33.554Z,7.58
2019-03-16T10:22:35.114Z,7.51
2019-03-16T10:27:36.676Z,7.34
2019-03-16T10:32:38.362Z,7.33
2019-03-16T10:37:40.114Z,7.37
2019-03-16T10:42:41.671Z,7.49
2019-03-16T10:47:43.756Z,7.54
2019-03-16T10:52:45.307Z,7.59
2019-03-16T10:57:46.849Z,7.69
2019-03-16T11:02:48.508Z,7.78
2019-03-16T11:07:50.078Z,7.92
2019-03-16T11:12:51.683Z,8.14
2019-03-16T11:17:53.261Z,8.22
2019-03-16T11:22:54.824Z,8.54
2019-03-16T11:27:56.437Z,9.46
2019-03-16T11:32:57.993Z,9.59
2019-03-16T11:37:59.625Z,9.33
2019-03-16T11:43:01.226Z,8.93
2019-03-16T11:48:03.007Z,8.63
2019-03-16T11:53:04.569Z,8.52
2019-03-16T11:58:06.132Z,8.38
2019-03-16T12:03:07.839Z,8.34
2019-03-16T12:08:09.397Z,8.59
2019-03-16T12:13:17.127Z,9.22
2019-03-16T12:18:14.420Z,9.36
2019-03-16T12:23:15.976Z,9.62
2019-03-16T12:28:17.566Z,9.97
2019-03-16T12:33:19.216Z,9.88
2019-03-16T12:38:21.200Z,9.74
2019-03-16T12:43:24.049Z,9.82
2019-03-16T12:48:25.646Z,9.88
2019-03-16T12:53:27.205Z,9.69
2019-03-16T12:58:28.791Z,9.30
2019-03-16T13:03:30.402Z,9.22
2019-03-16T13:08:32.522Z,8.98
2019-03-16T13:13:34.065Z,8.80
2019-03-16T13:18:35.638Z,8.68
2019-03-16T13:23:37.198Z,8.57
2019-03-16T13:28:38.807Z,8.46
2019-03-16T13:33:40.399Z,8.48
2019-03-16T13:38:42.048Z,8.36
2019-03-16T13:43:43.612Z,8.29
2019-03-16T13:48:45.210Z,8.16
2019-03-16T13:53:46.804Z,8.08
2019-03-16T13:58:48.354Z,8.04
2019-03-16T14:03:49.928Z,8.03
2019-03-16T14:08:51.554Z,8.03
2019-03-16T14:13:53.237Z,8.01
2019-03-16T14:18:54.788Z,8.06
2019-03-16T14:23:56.373Z,8.09
2019-03-16T14:28:57.925Z,8.11
2019-03-16T14:33:59.486Z,8.14
2019-03-16T14:39:01.453Z,8.27
2019-03-16T14:44:03.830Z,8.34
2019-03-16T14:49:05.429Z,8.36
2019-03-16T14:54:06.975Z,8.52
2019-03-16T14:59:08.534Z,8.58
2019-03-16T15:04:10.090Z,8.56
2019-03-16T15:09:11.677Z,8.29
2019-03-16T15:14:21.455Z,8.08
2019-03-16T15:19:16.759Z,7.92
2019-03-16T15:24:18.646Z,7.79
2019-03-16T15:29:21.298Z,7.69
2019-03-16T15:34:22.853Z,7.60
2019-03-16T15:39:24.518Z,7.55
2019-03-16T15:44:26.977Z,7.47
2019-03-16T15:49:28.539Z,7.38
2019-03-16T15:54:30.089Z,7.30
2019-03-16T15:59:31.715Z,7.23
2019-03-16T16:04:33.487Z,7.15
2019-03-16T16:09:35.057Z,7.07
2019-03-16T16:14:36.753Z,7.01
2019-03-16T16:19:38.671Z,6.95
2019-03-16T16:24:40.210Z,6.89
2019-03-16T16:29:41.779Z,6.82
2019-03-16T16:34:43.439Z,6.77
2019-03-16T16:39:46.220Z,6.71
2019-03-16T16:44:48.118Z,6.66
2019-03-16T16:49:50.840Z,6.62
2019-03-16T16:54:52.640Z,6.57
2019-03-16T16:59:54.212Z,6.53
2019-03-16T17:04:55.765Z,6.51
2019-03-16T17:09:57.581Z,6.50
2019-03-16T17:14:59.135Z,6.48
2019-03-16T17:20:00.684Z,6.45
2019-03-16T17:25:04.794Z,6.40
2019-03-16T17:30:14.817Z,6.36
2019-03-16T17:35:17.385Z,6.31
2019-03-16T17:40:19.100Z,6.28
2019-03-16T17:45:20.675Z,6.28
2019-03-16T17:50:22.396Z,6.24
2019-03-16T17:55:24.059Z,6.22
2019-03-16T18:00:25.615Z,6.18
2019-03-16T18:05:27.160Z,6.15
2019-03-16T18:10:28.726Z,6.12
2019-03-16T18:15:30.394Z,6.09
2019-03-16T18:20:32.065Z,6.05
2019-03-16T18:25:33.635Z,5.99
2019-03-16T18:30:37.150Z,5.97
2019-03-16T18:35:39.308Z,5.97
2019-03-16T18:40:40.936Z,5.96
2019-03-16T18:45:42.504Z,5.93
2019-03-16T18:50:44.161Z,5.91
2019-03-16T18:55:45.727Z,5.86
2019-03-16T19:00:47.359Z,5.81
2019-03-16T19:05:49.606Z,5.78
2019-03-16T19:10:53.186Z,5.80
2019-03-16T19:15:54.881Z,5.76
2019-03-16T19:20:57.540Z,5.80
2019-03-16T19:25:59.107Z,5.81
2019-03-16T19:31:00.695Z,5.86
2019-03-16T19:36:02.489Z,5.87
2019-03-16T19:41:04.230Z,5.91
2019-03-16T19:46:05.790Z,5.94
2019-03-16T19:51:07.445Z,5.96
2019-03-16T19:56:09.114Z,5.97
2019-03-16T20:01:10.736Z,5.98
2019-03-16T20:06:24.761Z,6.01
2019-03-16T20:11:16.317Z,6.05
2019-03-16T20:16:17.874Z,6.12
2019-03-16T20:21:19.414Z,6.16
2019-03-16T20:26:21.008Z,6.18
2019-03-16T20:31:22.565Z,6.20
2019-03-16T20:36:24.501Z,6.23
2019-03-16T20:41:35.690Z,6.25
2019-03-16T20:46:30.865Z,6.16
2019-03-16T20:51:32.661Z,6.11
2019-03-16T20:56:34.345Z,6.11
2019-03-16T21:01:37.036Z,6.15
2019-03-16T21:06:38.710Z,6.18
2019-03-16T21:11:41.508Z,6.22
2019-03-16T21:16:43.060Z,6.25
2019-03-16T21:21:44.644Z,6.29
2019-03-16T21:26:52.674Z,6.32
2019-03-16T21:31:50.169Z,6.38
2019-03-16T21:36:51.721Z,6.42
2019-03-16T21:41:53.358Z,6.52
2019-03-16T21:46:54.899Z,6.61
2019-03-16T21:51:56.460Z,6.67
2019-03-16T21:56:58.082Z,6.64
2019-03-16T22:01:59.713Z,6.64
2019-03-16T22:07:01.316Z,6.62
2019-03-16T22:12:03.231Z,6.62
2019-03-16T22:17:04.792Z,6.60
2019-03-16T22:22:06.390Z,6.62
2019-03-16T22:27:07.940Z,6.62
2019-03-16T22:32:09.546Z,6.64
